Time;durP1;ratioP1;P1;durP2;ratioP2;P2;SDS_P1;SDS_P2;PMS_P1;PMS_P2;Temp;Humidity;BMP_temperature;BMP_pressure;BME280_temperature;BME280_humidity;BME280_pressure;Samples;Min_cycle;Max_cycle;Signal;HPM_P1;HPM_P2
2023/05/22 00:00:14;;;;;;;17.08;10.63;;;;;;;13.97;100.00;101384.63;5123627;27;20033;-77
2023/05/22 00:02:42;;;;;;;15.85;9.57;;;;;;;13.96;100.00;101381.13;5116449;27;20384;-78
2023/05/22 00:05:13;;;;;;;17.48;10.77;;;;;;;13.94;100.00;101382.25;5111986;27;20073;-78
2023/05/22 00:07:44;;;;;;;12.52;9.77;;;;;;;13.92;100.00;101384.22;5119175;27;20038;-82
2023/05/22 00:10:13;;;;;;;16.05;10.15;;;;;;;13.88;100.00;101387.19;5105656;27;20026;-82
2023/05/22 00:12:40;;;;;;;16.30;9.55;;;;;;;13.94;100.00;101385.75;5121874;27;20030;-82
2023/05/22 00:15:10;;;;;;;12.95;10.15;;;;;;;13.92;100.00;101386.88;5107934;27;20063;-81
2023/05/22 00:17:38;;;;;;;13.50;9.60;;;;;;;13.89;100.00;101388.84;5102983;27;20559;-78
2023/05/22 00:20:09;;;;;;;14.88;9.55;;;;;;;13.87;100.00;101385.47;5116148;27;20198;-78
2023/05/22 00:22:37;;;;;;;17.33;10.82;;;;;;;13.85;100.00;101387.47;5101849;28;20039;-78
2023/05/22 00:25:05;;;;;;;14.43;9.82;;;;;;;13.85;100.00;101390.13;5122642;27;20115;-78
2023/05/22 00:27:33;;;;;;;13.50;10.40;;;;;;;13.89;100.00;101390.66;5108157;27;20506;-78
2023/05/22 00:30:02;;;;;;;14.52;10.70;;;;;;;13.91;100.00;101387.84;5129121;27;20071;-78
2023/05/22 00:32:30;;;;;;;15.82;10.15;;;;;;;13.93;100.00;101383.25;5110721;27;20372;-78
2023/05/22 00:34:58;;;;;;;14.60;10.52;;;;;;;13.92;100.00;101392.19;5095848;27;20050;-78
2023/05/22 00:37:25;;;;;;;14.40;10.43;;;;;;;13.96;100.00;101393.59;5110913;27;20039;-77
2023/05/22 00:39:54;;;;;;;13.80;10.60;;;;;;;13.95;100.00;101387.41;5120747;27;20057;-78
2023/05/22 00:42:22;;;;;;;15.38;10.65;;;;;;;13.97;100.00;101389.94;5094939;27;20042;-78
2023/05/22 00:44:50;;;;;;;13.80;9.90;;;;;;;13.94;100.00;101390.22;5093170;28;20384;-78
2023/05/22 00:47:22;;;;;;;12.75;9.90;;;;;;;13.94;100.00;101384.91;5108555;27;20036;-78
2023/05/22 00:49:52;;;;;;;16.02;9.95;;;;;;;13.89;100.00;101393.31;5110112;27;20553;-78
2023/05/22 00:52:21;;;;;;;13.95;9.93;;;;;;;13.86;100.00;101398.91;5118728;28;20031;-78
2023/05/22 00:54:50;;;;;;;13.75;9.30;;;;;;;13.83;100.00;101399.19;5121555;27;20031;-79
2023/05/22 00:57:20;;;;;;;16.02;9.60;;;;;;;13.82;100.00;101394.88;5091328;28;20032;-81
2023/05/22 00:59:50;;;;;;;13.10;9.27;;;;;;;13.82;100.00;101402.84;5091339;28;20115;-81
2023/05/22 01:02:19;;;;;;;11.18;9.20;;;;;;;13.81;100.00;101399.34;5086170;28;20035;-82
2023/05/22 01:04:47;;;;;;;12.88;9.88;;;;;;;13.86;100.00;101393.59;5094428;28;20092;-81
2023/05/22 01:07:17;;;;;;;14.63;9.25;;;;;;;13.82;100.00;101398.38;5121874;28;20023;-78
2023/05/22 01:09:44;;;;;;;13.10;9.65;;;;;;;13.83;100.00;101400.03;5106662;28;20446;-78
2023/05/22 01:12:12;;;;;;;13.85;9.65;;;;;;;13.80;100.00;101391.50;5114047;28;20046;-78
2023/05/22 01:14:51;;;;;;;16.52;10.93;;;;;;;13.81;100.00;101393.22;5106013;28;20834;-77
2023/05/22 01:17:53;;;;;;;20.08;11.18;;;;;;;13.81;100.00;101396.69;5124603;28;20035;-78
2023/05/22 01:20:22;;;;;;;14.95;10.63;;;;;;;13.78;100.00;101394.31;5105227;28;20123;-77
2023/05/22 01:23:12;;;;;;;18.13;11.32;;;;;;;13.81;100.00;101393.22;5092138;28;20032;-82
2023/05/22 01:26:16;;;;;;;17.95;11.13;;;;;;;13.84;100.00;101392.91;5124307;28;20027;-81
2023/05/22 01:29:10;;;;;;;26.52;11.30;;;;;;;13.82;100.00;101392.22;5098354;28;20092;-82
2023/05/22 01:31:41;;;;;;;15.20;10.57;;;;;;;13.83;100.00;101396.53;5101322;28;20384;-82
2023/05/22 01:34:11;;;;;;;21.50;11.40;;;;;;;13.84;100.00;101398.22;5101207;28;20510;-78
2023/05/22 01:36:45;;;;;;;16.58;10.82;;;;;;;13.82;100.00;101395.72;5084375;28;20030;-77
2023/05/22 01:39:17;;;;;;;22.83;11.32;;;;;;;13.83;100.00;101397.38;5124981;28;20088;-82
2023/05/22 01:41:47;;;;;;;23.65;12.35;;;;;;;13.81;100.00;101398.53;5106571;28;20036;-82
2023/05/22 01:44:17;;;;;;;20.00;11.30;;;;;;;13.80;100.00;101397.66;5117499;28;20511;-77
2023/05/22 01:46:46;;;;;;;23.17;11.60;;;;;;;13.80;100.00;101397.66;5089718;28;20068;-77
2023/05/22 01:49:13;;;;;;;16.40;10.45;;;;;;;13.75;100.00;101398.09;5119105;28;20508;-77
2023/05/22 01:51:56;;;;;;;14.50;8.77;;;;;;;13.77;100.00;101395.31;5104720;28;20507;-77
2023/05/22 01:54:51;;;;;;;9.63;6.13;;;;;;;13.69;100.00;101390.69;5120926;28;20051;-77
2023/05/22 01:57:28;;;;;;;9.45;4.47;;;;;;;13.62;100.00;101398.38;5115890;28;20038;-78
2023/05/22 02:00:09;;;;;;;6.05;3.80;;;;;;;13.61;100.00;101393.22;5108758;28;20035;-77
2023/05/22 02:02:50;;;;;;;4.13;2.70;;;;;;;13.58;100.00;101402.31;5109569;28;20023;-81
2023/05/22 02:05:19;;;;;;;5.32;2.72;;;;;;;13.50;100.00;101399.47;5105546;28;20110;-82
2023/05/22 02:07:47;;;;;;;8.43;3.03;;;;;;;13.52;100.00;101402.88;5101104;28;20048;-77
2023/05/22 02:10:18;;;;;;;4.88;2.25;;;;;;;13.45;100.00;101401.72;5101578;28;20041;-77
2023/05/22 02:12:46;;;;;;;4.75;2.40;;;;;;;13.37;100.00;101400.59;5095761;28;20035;-81
2023/05/22 02:15:14;;;;;;;3.95;2.10;;;;;;;13.33;100.00;101396.53;5096993;28;20504;-81
2023/05/22 02:17:44;;;;;;;6.35;2.03;;;;;;;13.31;100.00;101395.84;5119670;27;20035;-80
2023/05/22 02:20:15;;;;;;;7.30;2.22;;;;;;;13.27;100.00;101397.09;5105288;27;20480;-80
2023/05/22 02:22:47;;;;;;;3.33;2.28;;;;;;;13.28;100.00;101406.75;5121512;27;20023;-81
2023/05/22 02:25:17;;;;;;;8.10;1.83;;;;;;;13.23;100.00;101403.66;5108600;27;20028;-82
2023/05/22 02:27:48;;;;;;;2.78;1.48;;;;;;;13.20;100.00;101402.13;5119118;27;20042;-81
2023/05/22 02:30:16;;;;;;;5.00;1.45;;;;;;;13.14;100.00;101410.63;5105434;27;20131;-81
2023/05/22 02:32:45;;;;;;;2.72;1.50;;;;;;;13.09;100.00;101404.91;5109467;27;20057;-76
2023/05/22 02:35:13;;;;;;;2.88;1.48;;;;;;;12.99;100.00;101410.19;5095090;27;20047;-76
2023/05/22 02:37:41;;;;;;;1.63;1.20;;;;;;;12.97;100.00;101410.31;5106771;27;20389;-81
2023/05/22 02:40:09;;;;;;;1.98;1.10;;;;;;;12.98;100.00;101416.47;5101442;28;20035;-81
2023/05/22 02:42:37;;;;;;;1.90;0.98;;;;;;;12.95;100.00;101428.19;5102715;27;20034;-77
2023/05/22 02:45:06;;;;;;;2.35;0.57;;;;;;;12.80;100.00;101424.25;5108180;27;20027;-77
2023/05/22 02:47:35;;;;;;;0.50;0.20;;;;;;;12.72;100.00;101420.47;5109554;27;20031;-76
2023/05/22 02:50:06;;;;;;;1.40;0.30;;;;;;;12.57;100.00;101427.94;5127085;27;20083;-77
2023/05/22 02:52:38;;;;;;;0.70;0.25;;;;;;;12.45;100.00;101426.34;5111173;27;20033;-77
2023/05/22 02:55:08;;;;;;;3.58;0.25;;;;;;;12.40;100.00;101429.38;5130795;27;20102;-77
2023/05/22 02:57:38;;;;;;;1.23;0.30;;;;;;;12.35;100.00;101432.44;5091933;27;20035;-80
2023/05/22 03:00:10;;;;;;;1.00;0.28;;;;;;;12.30;100.00;101433.78;5128511;27;20464;-81
2023/05/22 03:02:39;;;;;;;0.60;0.28;;;;;;;12.25;100.00;101428.88;5094727;27;20107;-76
2023/05/22 03:05:07;;;;;;;1.17;0.32;;;;;;;12.18;100.00;101433.88;5113152;27;20050;-76
2023/05/22 03:07:36;;;;;;;2.88;0.50;;;;;;;12.17;100.00;101440.13;5113143;27;20528;-76
2023/05/22 03:10:04;;;;;;;1.08;0.40;;;;;;;12.14;100.00;101451.00;5130288;27;20043;-76
2023/05/22 03:12:32;;;;;;;3.03;0.60;;;;;;;12.19;100.00;101453.25;5105702;28;20783;-81
2023/05/22 03:15:00;;;;;;;0.93;0.35;;;;;;;12.12;100.00;101448.47;5101343;28;20039;-81
2023/05/22 03:17:32;;;;;;;3.03;0.75;;;;;;;12.09;100.00;101447.91;5111786;27;20103;-77
2023/05/22 03:20:01;;;;;;;3.00;0.68;;;;;;;12.01;100.00;101441.41;5127723;27;20031;-77
2023/05/22 03:22:28;;;;;;;2.17;0.80;;;;;;;11.98;100.00;101443.47;5105262;28;20106;-79
2023/05/22 03:24:56;;;;;;;1.00;0.63;;;;;;;11.90;100.00;101433.50;5126621;27;20039;-82
2023/05/22 03:27:24;;;;;;;3.05;0.77;;;;;;;11.92;100.00;101439.53;5094737;27;20035;-77
2023/05/22 03:29:52;;;;;;;2.40;0.80;;;;;;;11.93;100.00;101435.09;5106101;27;20023;-77
2023/05/22 03:32:21;;;;;;;3.13;0.80;;;;;;;11.93;100.00;101433.25;5090033;27;20043;-77
2023/05/22 03:34:49;;;;;;;3.88;1.80;;;;;;;11.89;100.00;101435.34;5092022;28;20057;-77
2023/05/22 03:37:16;;;;;;;4.22;1.00;;;;;;;11.96;100.00;101432.19;5125738;27;20031;-77
2023/05/22 03:39:45;;;;;;;5.88;1.35;;;;;;;12.02;100.00;101429.00;5128268;27;20035;-77
2023/05/22 03:42:20;;;;;;;3.58;1.10;;;;;;;12.09;100.00;101446.09;5108499;27;20036;-77
2023/05/22 03:44:49;;;;;;;2.35;1.10;;;;;;;12.13;100.00;101444.88;5127512;27;20118;-77
2023/05/22 03:47:18;;;;;;;6.38;1.50;;;;;;;12.24;100.00;101451.91;5086360;27;20039;-81
2023/05/22 03:49:47;;;;;;;7.05;1.83;;;;;;;12.27;100.00;101450.81;5119927;27;20051;-81
2023/05/22 03:52:14;;;;;;;4.05;1.73;;;;;;;12.30;100.00;101460.28;5088972;28;20036;-76
2023/05/22 03:54:42;;;;;;;11.98;3.08;;;;;;;12.27;100.00;101459.59;5120072;27;20114;-77
2023/05/22 03:57:10;;;;;;;7.80;2.72;;;;;;;12.27;100.00;101466.72;5085223;28;20031;-77
2023/05/22 03:59:38;;;;;;;17.58;3.60;;;;;;;12.22;100.00;101469.75;5110851;27;20034;-78
2023/05/22 04:02:05;;;;;;;13.75;3.40;;;;;;;12.17;100.00;101466.63;5099965;28;20024;-77
2023/05/22 04:04:37;;;;;;;13.25;2.72;;;;;;;12.04;100.00;101466.78;5123523;27;20034;-76
2023/05/22 04:07:07;;;;;;;11.70;2.53;;;;;;;11.94;100.00;101460.59;5091497;28;20034;-77
2023/05/22 04:09:36;;;;;;;12.93;3.22;;;;;;;11.85;100.00;101463.03;5110966;27;20027;-77
2023/05/22 04:12:02;;;;;;;13.07;3.58;;;;;;;11.89;100.00;101464.47;5123119;27;20034;-77
2023/05/22 04:14:31;;;;;;;12.02;2.67;;;;;;;11.84;100.00;101466.66;5110197;27;20028;-77
2023/05/22 04:16:58;;;;;;;9.43;3.05;;;;;;;11.86;100.00;101477.13;5128011;27;20488;-77
2023/05/22 04:19:28;;;;;;;16.25;3.35;;;;;;;11.83;100.00;101474.75;5093570;27;20097;-77
2023/05/22 04:21:57;;;;;;;13.00;3.15;;;;;;;11.88;100.00;101473.38;5104499;27;20513;-76
2023/05/22 04:24:26;;;;;;;16.85;3.30;;;;;;;11.87;100.00;101481.44;5105719;27;20030;-77
2023/05/22 04:26:58;;;;;;;8.05;3.08;;;;;;;11.84;100.00;101490.50;5117615;27;20220;-77
2023/05/22 04:29:27;;;;;;;10.02;2.75;;;;;;;11.76;100.00;101487.63;5087670;27;20031;-77
2023/05/22 04:31:56;;;;;;;7.82;2.63;;;;;;;11.72;100.00;101488.88;5101856;27;20407;-81
2023/05/22 04:34:23;;;;;;;9.45;3.15;;;;;;;11.55;100.00;101493.72;5121533;27;20032;-81
2023/05/22 04:36:51;;;;;;;11.25;3.20;;;;;;;11.50;100.00;101499.41;5103163;28;20027;-81
2023/05/22 04:39:19;;;;;;;9.50;4.72;;;;;;;11.38;100.00;101497.75;5120572;27;20484;-81
2023/05/22 04:41:48;;;;;;;13.73;3.72;;;;;;;11.31;100.00;101504.50;5120635;27;20469;-81
2023/05/22 04:44:15;;;;;;;15.45;4.15;;;;;;;11.20;100.00;101505.34;5120040;27;20666;-82
2023/05/22 04:46:43;;;;;;;17.75;4.95;;;;;;;11.17;100.00;101511.72;5088854;27;20063;-81
2023/05/22 04:49:11;;;;;;;20.58;4.53;;;;;;;11.10;100.00;101519.31;5102483;28;20061;-77
2023/05/22 04:51:39;;;;;;;20.70;4.90;;;;;;;11.11;100.00;101518.38;5119781;27;20488;-76
2023/05/22 04:54:07;;;;;;;20.38;4.72;;;;;;;11.08;100.00;101526.53;5096850;28;20040;-80
2023/05/22 04:56:36;;;;;;;13.48;3.95;;;;;;;11.10;100.00;101532.53;5118211;27;20051;-81
2023/05/22 04:59:07;;;;;;;16.20;4.07;;;;;;;11.04;100.00;101531.22;5098213;28;20035;-78
2023/05/22 05:01:37;;;;;;;23.38;4.57;;;;;;;11.06;100.00;101531.09;5087327;28;20148;-77
2023/05/22 05:04:06;;;;;;;30.02;4.50;;;;;;;11.07;100.00;101538.06;5107663;28;20037;-75
2023/05/22 05:06:34;;;;;;;14.45;4.07;;;;;;;11.01;100.00;101542.03;5111962;28;20032;-77
2023/05/22 05:09:03;;;;;;;17.30;3.88;;;;;;;11.06;100.00;101538.19;5112960;28;20031;-77
2023/05/22 05:11:31;;;;;;;22.45;4.47;;;;;;;11.02;100.00;101538.44;5128108;28;20039;-77
2023/05/22 05:14:00;;;;;;;20.88;3.88;;;;;;;11.09;100.00;101544.09;5108214;28;20033;-81
2023/05/22 05:16:29;;;;;;;20.48;4.10;;;;;;;11.07;100.00;101538.06;5126961;28;20028;-81
2023/05/22 05:18:57;;;;;;;20.23;3.70;;;;;;;11.09;100.00;101535.31;5140292;27;20031;-82
2023/05/22 05:21:26;;;;;;;15.80;3.75;;;;;;;11.03;100.00;101541.94;5106841;28;20488;-81
2023/05/22 05:23:54;;;;;;;19.95;4.68;;;;;;;11.02;100.00;101534.97;5093677;28;20042;-76
2023/05/22 05:26:22;;;;;;;20.15;4.32;;;;;;;11.01;100.00;101538.56;5107591;28;20114;-77
2023/05/22 05:28:52;;;;;;;10.73;3.15;;;;;;;11.11;100.00;101536.03;5089182;28;20388;-81
2023/05/22 05:31:20;;;;;;;11.90;3.75;;;;;;;11.11;100.00;101533.38;5126863;28;20035;-81
2023/05/22 05:34:06;;;;;;;11.40;3.55;;;;;;;11.08;100.00;101536.28;5104988;28;20040;-82
2023/05/22 05:37:06;;;;;;;13.20;3.65;;;;;;;11.06;100.00;101535.53;5096955;28;20061;-76
2023/05/22 05:39:34;;;;;;;9.02;3.10;;;;;;;11.04;100.00;101546.25;5106873;28;20055;-77
2023/05/22 05:42:04;;;;;;;12.18;4.20;;;;;;;11.12;100.00;101545.66;5123484;27;20076;-77
2023/05/22 05:44:32;;;;;;;9.55;3.20;;;;;;;11.09;100.00;101546.72;5118582;27;20110;-77
2023/05/22 05:47:01;;;;;;;13.93;4.22;;;;;;;11.10;100.00;101545.75;5123023;28;20035;-76
2023/05/22 05:49:29;;;;;;;10.15;3.15;;;;;;;11.03;100.00;101550.72;5111285;27;20051;-77
2023/05/22 05:51:56;;;;;;;8.73;3.25;;;;;;;10.99;100.00;101559.00;5118007;27;20070;-76
2023/05/22 05:54:25;;;;;;;15.13;4.38;;;;;;;10.94;100.00;101554.06;5129094;27;20031;-77
2023/05/22 05:56:55;;;;;;;16.95;3.95;;;;;;;10.94;100.00;101543.47;5111497;27;20024;-81
2023/05/22 05:59:24;;;;;;;10.73;3.08;;;;;;;10.89;100.00;101564.16;5125068;27;20527;-81
2023/05/22 06:02:11;;;;;;;11.25;3.75;;;;;;;10.91;100.00;101554.28;5109421;27;20369;-76
2023/05/22 06:04:41;;;;;;;16.60;3.95;;;;;;;10.91;100.00;101560.44;5120851;27;20500;-77
2023/05/22 06:07:09;;;;;;;10.23;3.60;;;;;;;10.96;100.00;101568.00;5113877;27;20046;-76
2023/05/22 06:09:41;;;;;;;12.13;2.65;;;;;;;10.98;100.00;101568.75;5109623;27;20076;-77
2023/05/22 06:12:12;;;;;;;12.32;3.30;;;;;;;10.89;100.00;101580.03;5117404;27;20035;-76
2023/05/22 06:14:44;;;;;;;15.30;2.97;;;;;;;10.86;100.00;101580.28;5110413;28;20035;-76
2023/05/22 06:17:13;;;;;;;13.35;3.72;;;;;;;10.82;100.00;101579.66;5105584;28;20489;-77
2023/05/22 06:19:43;;;;;;;8.00;2.40;;;;;;;10.84;100.00;101572.47;5129158;27;20043;-77
2023/05/22 06:22:13;;;;;;;22.30;2.55;;;;;;;10.84;100.00;101574.25;5112486;27;20095;-77
2023/05/22 06:24:42;;;;;;;11.35;2.20;;;;;;;10.83;100.00;101581.34;5110473;27;21001;-77
2023/05/22 06:27:15;;;;;;;9.90;2.17;;;;;;;10.79;100.00;101593.97;5128515;27;20724;-77
2023/05/22 06:29:43;;;;;;;12.50;2.63;;;;;;;10.78;100.00;101589.63;5089695;28;20084;-75
2023/05/22 06:32:11;;;;;;;9.10;2.40;;;;;;;10.86;100.00;101598.78;5109050;27;20571;-77
2023/05/22 06:34:40;;;;;;;17.35;2.38;;;;;;;10.85;100.00;101602.38;5093079;27;20518;-78
2023/05/22 06:37:09;;;;;;;9.95;2.60;;;;;;;10.86;100.00;101594.31;5114240;27;20035;-78
2023/05/22 06:39:41;;;;;;;15.75;2.50;;;;;;;10.82;100.00;101599.97;5104002;27;20023;-76
2023/05/22 06:42:49;;;;;;;13.48;2.20;;;;;;;10.77;100.00;101598.53;5091038;28;20027;-77
2023/05/22 06:45:25;;;;;;;12.32;2.33;;;;;;;10.77;100.00;101608.25;5092933;28;20505;-77
2023/05/22 06:48:15;;;;;;;14.27;2.83;;;;;;;10.87;100.00;101611.03;5084191;27;20047;-80
2023/05/22 06:50:57;;;;;;;10.73;2.22;;;;;;;10.98;100.00;101611.06;5109546;27;20106;-81
2023/05/22 06:53:26;;;;;;;15.48;3.08;;;;;;;11.04;100.00;101622.97;5129376;27;20031;-80
2023/05/22 06:55:54;;;;;;;11.40;2.92;;;;;;;11.06;100.00;101621.06;5129473;27;20400;-80
2023/05/22 06:58:32;;;;;;;5.47;1.92;;;;;;;11.01;100.00;101624.06;5113481;27;20035;-78
2023/05/22 07:01:05;;;;;;;10.85;2.28;;;;;;;11.06;100.00;101629.00;5096261;27;20485;-77
2023/05/22 07:03:39;;;;;;;8.25;2.35;;;;;;;11.03;100.00;101622.16;5123207;27;20452;-77
2023/05/22 07:06:37;;;;;;;9.93;2.47;;;;;;;11.00;100.00;101626.81;5115909;27;20038;-77
2023/05/22 07:09:13;;;;;;;12.95;3.10;;;;;;;11.06;100.00;101636.09;5107579;27;20035;-78
2023/05/22 07:11:44;;;;;;;16.40;3.88;;;;;;;11.07;100.00;101632.50;5092207;28;20714;-78
2023/05/22 07:14:17;;;;;;;15.77;2.60;;;;;;;11.10;100.00;101633.09;5123408;27;20388;-80
2023/05/22 07:16:47;;;;;;;18.13;2.80;;;;;;;11.11;100.00;101640.06;5105627;27;20027;-79
2023/05/22 07:19:22;;;;;;;9.20;2.30;;;;;;;11.09;100.00;101638.50;5129466;27;20453;-77
2023/05/22 07:21:49;;;;;;;16.08;2.53;;;;;;;11.13;100.00;101626.72;5104756;27;20027;-76
2023/05/22 07:24:20;;;;;;;12.93;2.40;;;;;;;11.25;100.00;101633.72;5129430;27;20035;-80
2023/05/22 07:26:48;;;;;;;9.38;2.33;;;;;;;11.25;100.00;101635.50;5102808;27;20030;-81
2023/05/22 07:29:19;;;;;;;6.43;1.77;;;;;;;11.35;100.00;101636.50;5109603;27;20038;-77
2023/05/22 07:31:54;;;;;;;11.30;2.85;;;;;;;11.45;100.00;101639.22;5129306;27;20054;-76
2023/05/22 07:34:31;;;;;;;16.45;2.83;;;;;;;11.63;100.00;101649.34;5092965;28;20437;-78
2023/05/22 07:37:08;;;;;;;8.50;2.38;;;;;;;11.68;100.00;101641.03;5125250;27;20362;-82
2023/05/22 07:39:38;;;;;;;27.75;4.50;;;;;;;11.67;100.00;101650.81;5127120;27;20453;-80
2023/05/22 07:42:07;;;;;;;12.50;2.50;;;;;;;11.68;100.00;101659.56;5129988;27;20395;-77
2023/05/22 07:44:41;;;;;;;8.50;1.80;;;;;;;11.63;100.00;101660.78;5096446;27;20490;-77
2023/05/22 07:47:11;;;;;;;8.73;1.98;;;;;;;11.63;100.00;101666.09;5124358;27;20031;-81
2023/05/22 07:49:43;;;;;;;9.20;1.70;;;;;;;11.60;100.00;101657.53;5122245;27;20039;-80
2023/05/22 07:52:13;;;;;;;13.10;2.30;;;;;;;11.57;100.00;101661.28;5094886;28;20031;-76
2023/05/22 07:54:43;;;;;;;13.23;1.98;;;;;;;11.60;100.00;101663.69;5106866;27;21073;-79
2023/05/22 07:57:14;;;;;;;6.88;1.60;;;;;;;11.58;100.00;101662.13;5089225;27;20039;-82
2023/05/22 07:59:44;;;;;;;6.15;1.95;;;;;;;11.51;100.00;101664.41;5107889;27;20031;-81
2023/05/22 08:02:14;;;;;;;8.75;2.22;;;;;;;11.42;100.00;101660.66;5119046;27;20115;-76
2023/05/22 08:04:43;;;;;;;7.32;1.52;;;;;;;11.35;100.00;101662.09;5109219;27;20087;-78
2023/05/22 08:07:11;;;;;;;8.55;1.85;;;;;;;11.40;100.00;101663.41;5114094;27;20540;-78
2023/05/22 08:09:39;;;;;;;8.73;1.83;;;;;;;11.32;100.00;101660.56;5111419;27;20037;-77
2023/05/22 08:12:07;;;;;;;12.20;2.33;;;;;;;11.36;100.00;101671.72;5102585;27;20050;-78
2023/05/22 08:14:35;;;;;;;7.93;1.40;;;;;;;11.30;100.00;101675.69;5103890;27;20027;-78
2023/05/22 08:17:05;;;;;;;7.95;1.70;;;;;;;11.29;100.00;101671.38;5123660;27;20050;-82
2023/05/22 08:19:35;;;;;;;7.43;1.60;;;;;;;11.26;100.00;101675.09;5107082;27;20134;-82
2023/05/22 08:22:05;;;;;;;7.05;1.25;;;;;;;11.19;100.00;101686.25;5125952;27;20496;-77
2023/05/22 08:24:33;;;;;;;8.55;1.85;;;;;;;11.16;100.00;101676.78;5128144;27;20123;-77
2023/05/22 08:27:01;;;;;;;10.15;1.73;;;;;;;11.12;100.00;101683.25;5106590;27;20377;-78
2023/05/22 08:29:31;;;;;;;6.03;1.40;;;;;;;11.07;100.00;101688.06;5104306;27;20023;-78
2023/05/22 08:32:01;;;;;;;7.28;1.75;;;;;;;11.11;100.00;101687.72;5086435;27;20039;-78
2023/05/22 08:34:31;;;;;;;4.75;1.33;;;;;;;11.18;100.00;101676.66;5117105;27;20091;-77
2023/05/22 08:37:01;;;;;;;12.82;2.13;;;;;;;11.13;100.00;101675.19;5103901;28;20031;-81
2023/05/22 08:39:30;;;;;;;7.20;2.00;;;;;;;11.20;100.00;101680.00;5117219;27;20035;-81
2023/05/22 08:41:58;;;;;;;9.93;1.40;;;;;;;11.19;100.00;101680.97;5118357;27;20397;-78
2023/05/22 08:44:28;;;;;;;8.35;2.05;;;;;;;11.28;100.00;101682.91;5091250;27;20047;-80
2023/05/22 08:46:58;;;;;;;10.95;1.67;;;;;;;11.34;100.00;101681.59;5093039;27;20026;-81
2023/05/22 08:49:26;;;;;;;7.63;1.25;;;;;;;11.35;100.00;101672.69;5103358;27;20418;-82
2023/05/22 08:52:04;;;;;;;13.30;1.85;;;;;;;11.53;100.00;101673.91;5105682;28;20035;-78
2023/05/22 08:54:36;;;;;;;7.10;1.65;;;;;;;11.65;100.00;101671.25;5097372;28;20039;-78
2023/05/22 08:57:06;;;;;;;4.00;1.48;;;;;;;11.77;100.00;101674.72;5118679;27;20046;-78
2023/05/22 08:59:39;;;;;;;8.80;2.15;;;;;;;11.85;100.00;101674.97;5094553;28;20031;-78
2023/05/22 09:02:10;;;;;;;8.40;1.63;;;;;;;11.95;100.00;101674.22;5118639;28;20070;-78
2023/05/22 09:04:43;;;;;;;8.10;1.90;;;;;;;12.08;100.00;101674.13;5101616;28;20389;-77
2023/05/22 09:07:13;;;;;;;6.68;1.50;;;;;;;12.11;100.00;101680.03;5107815;28;20155;-76
2023/05/22 09:09:43;;;;;;;9.25;1.50;;;;;;;12.14;100.00;101674.47;5085856;28;20042;-78
2023/05/22 09:12:12;;;;;;;9.20;1.45;;;;;;;12.20;100.00;101681.06;5120063;28;20508;-78
2023/05/22 09:14:43;;;;;;;10.52;1.70;;;;;;;12.30;100.00;101667.06;5107554;28;20031;-78
2023/05/22 09:17:16;;;;;;;6.80;1.88;;;;;;;12.42;100.00;101674.03;5121506;28;20079;-77
2023/05/22 09:19:47;;;;;;;6.90;1.73;;;;;;;12.38;100.00;101662.00;5110642;28;20031;-80
2023/05/22 09:22:17;;;;;;;9.52;1.77;;;;;;;12.31;100.00;101664.28;5114425;28;20038;-77
2023/05/22 09:24:47;;;;;;;8.20;1.77;;;;;;;12.29;100.00;101660.94;5123527;27;20105;-77
2023/05/22 09:27:15;;;;;;;7.68;2.03;;;;;;;12.33;100.00;101661.50;5107231;27;20039;-77
2023/05/22 09:29:52;;;;;;;7.63;2.33;;;;;;;12.31;100.00;101659.00;5126488;27;20023;-77
2023/05/22 09:32:21;;;;;;;8.68;2.17;;;;;;;12.44;100.00;101664.13;5106426;27;20043;-80
2023/05/22 09:34:50;;;;;;;8.52;1.83;;;;;;;12.54;100.00;101653.59;5126642;27;20031;-81
2023/05/22 09:37:18;;;;;;;9.48;2.05;;;;;;;12.60;100.00;101660.22;5120457;27;20042;-77
2023/05/22 09:39:51;;;;;;;5.72;1.70;;;;;;;12.62;100.00;101663.59;5128507;27;20111;-77
2023/05/22 09:42:24;;;;;;;12.30;2.22;;;;;;;12.71;100.00;101656.69;5131429;27;20441;-77
2023/05/22 09:44:53;;;;;;;5.47;1.63;;;;;;;12.66;100.00;101649.13;5126337;27;20062;-78
2023/05/22 09:47:23;;;;;;;11.77;2.22;;;;;;;12.68;100.00;101654.28;5102214;27;20031;-77
2023/05/22 09:49:57;;;;;;;7.38;1.63;;;;;;;12.92;100.00;101651.34;5109929;27;20442;-77
2023/05/22 09:52:28;;;;;;;6.90;1.80;;;;;;;12.89;100.00;101646.31;5111483;27;20043;-78
2023/05/22 09:55:03;;;;;;;7.00;1.73;;;;;;;12.80;100.00;101653.25;5096136;27;20053;-78
2023/05/22 09:57:44;;;;;;;6.07;1.60;;;;;;;12.74;100.00;101643.97;5146482;27;20031;-77
2023/05/22 10:00:14;;;;;;;13.75;2.28;;;;;;;12.71;100.00;101644.25;5110187;27;20027;-78
2023/05/22 10:02:48;;;;;;;12.80;2.17;;;;;;;12.65;100.00;101647.41;5124736;27;20045;-77
2023/05/22 10:05:20;;;;;;;10.23;1.90;;;;;;;12.70;100.00;101644.38;5119374;27;20031;-77
2023/05/22 10:08:04;;;;;;;6.50;1.63;;;;;;;12.77;100.00;101645.56;5120975;27;20075;-76
2023/05/22 10:10:35;;;;;;;10.93;2.15;;;;;;;12.87;100.00;101633.19;5097130;27;20038;-77
2023/05/22 10:13:06;;;;;;;9.55;1.98;;;;;;;13.02;100.00;101654.09;5091876;27;20023;-77
2023/05/22 10:15:36;;;;;;;6.70;1.52;;;;;;;13.24;100.00;101645.13;5123352;27;20030;-77
2023/05/22 10:18:05;;;;;;;8.88;1.85;;;;;;;13.21;100.00;101649.84;5126674;27;20027;-77
2023/05/22 10:20:33;;;;;;;6.40;1.77;;;;;;;13.31;100.00;101634.81;5112968;27;20031;-78
2023/05/22 10:23:04;;;;;;;11.52;2.30;;;;;;;13.54;100.00;101652.41;5106760;27;20039;-77
2023/05/22 10:25:37;;;;;;;7.25;2.05;;;;;;;13.51;100.00;101654.34;5114299;27;20038;-77
2023/05/22 10:28:08;;;;;;;13.07;2.08;;;;;;;13.37;100.00;101655.53;5127789;27;20130;-81
2023/05/22 10:30:41;;;;;;;11.68;2.25;;;;;;;13.45;100.00;101659.31;5118202;27;20035;-82
2023/05/22 10:33:26;;;;;;;10.40;2.30;;;;;;;13.43;100.00;101654.16;5121903;27;20168;-82
2023/05/22 10:35:56;;;;;;;8.32;1.60;;;;;;;13.38;100.00;101645.72;5120101;27;20038;-81
2023/05/22 10:39:06;;;;;;;8.43;1.80;;;;;;;13.35;100.00;101648.66;5113573;27;20504;-77
2023/05/22 10:41:34;;;;;;;8.43;1.48;;;;;;;13.49;100.00;101652.78;5128129;27;20043;-77
2023/05/22 10:44:02;;;;;;;4.85;1.25;;;;;;;13.58;100.00;101665.28;5123352;27;20027;-77
2023/05/22 10:46:33;;;;;;;7.40;1.90;;;;;;;13.72;100.00;101668.53;5125747;27;20087;-77
2023/05/22 10:49:01;;;;;;;9.82;1.90;;;;;;;13.55;100.00;101657.59;5104527;27;20051;-77
2023/05/22 10:51:33;;;;;;;8.23;1.55;;;;;;;13.65;100.00;101654.94;5130955;27;20122;-77
2023/05/22 10:54:04;;;;;;;6.72;1.50;;;;;;;13.69;100.00;101658.19;5128619;27;20031;-77
2023/05/22 10:56:35;;;;;;;5.00;1.45;;;;;;;13.63;100.00;101655.09;5123760;27;20023;-78
2023/05/22 10:59:09;;;;;;;8.00;1.50;;;;;;;13.59;100.00;101658.16;5128971;27;20060;-76
2023/05/22 11:01:39;;;;;;;4.85;1.23;;;;;;;13.70;100.00;101654.53;5128831;27;20042;-78
2023/05/22 11:04:17;;;;;;;5.47;1.33;;;;;;;13.83;100.00;101651.66;5114474;27;20504;-77
2023/05/22 11:07:04;;;;;;;5.35;1.45;;;;;;;14.00;100.00;101655.47;5103253;27;20050;-77
2023/05/22 11:09:46;;;;;;;7.15;1.38;;;;;;;14.21;100.00;101654.50;5119481;27;20035;-76
2023/05/22 11:12:27;;;;;;;9.77;1.52;;;;;;;14.32;100.00;101661.50;5136397;27;20707;-76
2023/05/22 11:14:57;;;;;;;5.00;1.30;;;;;;;14.30;100.00;101661.66;5124473;27;20165;-76
2023/05/22 11:17:29;;;;;;;8.05;1.48;;;;;;;14.13;100.00;101668.50;5127399;27;20139;-78
2023/05/22 11:20:04;;;;;;;4.30;1.40;;;;;;;14.04;100.00;101654.22;5124844;27;20111;-78
2023/05/22 11:22:43;;;;;;;8.65;1.85;;;;;;;14.10;100.00;101658.13;5111969;27;20028;-81
2023/05/22 11:25:20;;;;;;;8.68;1.70;;;;;;;14.03;100.00;101663.16;5029561;27;20042;-80
2023/05/22 11:27:49;;;;;;;6.38;1.65;;;;;;;14.13;100.00;101655.19;5125660;27;20108;-77
2023/05/22 11:30:20;;;;;;;6.07;1.40;;;;;;;14.31;100.00;101654.53;5126338;27;20552;-77